createdAt,value
2018-06-27T00:00:33.397Z,5.80
2018-06-27T00:01:33.605Z,6.10
2018-06-27T00:02:33.861Z,6.60
2018-06-27T00:03:33.966Z,6.90
2018-06-27T00:04:34.178Z,6.30
2018-06-27T00:05:36.951Z,6.10
2018-06-27T00:06:36.440Z,5.60
2018-06-27T00:07:34.810Z,6.00
2018-06-27T00:08:35.052Z,5.70
2018-06-27T00:09:35.237Z,6.00
2018-06-27T00:10:35.461Z,5.90
2018-06-27T00:11:35.676Z,5.70
2018-06-27T00:12:35.888Z,5.50
2018-06-27T00:13:36.124Z,7.10
2018-06-27T00:14:36.339Z,6.60
2018-06-27T00:15:44.994Z,6.50
2018-06-27T00:16:36.701Z,7.30
2018-06-27T00:17:36.918Z,6.50
2018-06-27T00:18:37.133Z,6.80
2018-06-27T00:19:37.344Z,7.20
2018-06-27T00:20:37.561Z,6.30
2018-06-27T00:21:39.445Z,6.60
2018-06-27T00:22:37.903Z,6.90
2018-06-27T00:23:38.125Z,6.70
2018-06-27T00:24:38.337Z,6.80
2018-06-27T00:25:38.564Z,5.90
2018-06-27T00:26:40.436Z,6.10
2018-06-27T00:27:39.022Z,6.10
2018-06-27T00:28:40.960Z,6.20
2018-06-27T00:29:39.386Z,6.10
2018-06-27T00:30:41.441Z,6.70
2018-06-27T00:31:39.783Z,5.50
2018-06-27T00:32:43.931Z,5.90
2018-06-27T00:33:40.126Z,5.80
2018-06-27T00:34:40.333Z,6.20
2018-06-27T00:35:40.569Z,6.50
2018-06-27T00:36:40.815Z,6.50
2018-06-27T00:37:41.005Z,6.20
2018-06-27T00:38:41.196Z,6.20
2018-06-27T00:39:42.938Z,6.40
2018-06-27T00:40:43.432Z,6.20
2018-06-27T00:41:41.768Z,6.10
2018-06-27T00:42:41.988Z,6.10
2018-06-27T00:43:43.944Z,5.80
2018-06-27T00:44:44.939Z,6.00
2018-06-27T00:45:44.430Z,6.60
2018-06-27T00:46:44.493Z,6.30
2018-06-27T00:47:44.444Z,5.90
2018-06-27T00:48:44.928Z,6.40
2018-06-27T00:49:44.935Z,6.40
2018-06-27T00:50:44.944Z,6.20
2018-06-27T00:51:44.941Z,6.20
2018-06-27T00:52:43.523Z,6.20
2018-06-27T00:53:47.431Z,6.00
2018-06-27T00:54:47.428Z,5.80
2018-06-27T00:55:44.008Z,5.80
2018-06-27T00:56:44.278Z,6.10
2018-06-27T00:57:44.364Z,6.40
2018-06-27T00:58:44.642Z,5.90
2018-06-27T00:59:47.443Z,5.90
2018-06-27T01:00:44.917Z,6.30
2018-06-27T01:01:45.135Z,6.70
2018-06-27T01:02:45.339Z,6.90
2018-06-27T01:03:46.567Z,7.60
2018-06-27T01:04:45.804Z,7.50
2018-06-27T01:05:46.020Z,6.80
2018-06-27T01:06:47.948Z,6.60
2018-06-27T01:07:46.433Z,5.60
2018-06-27T01:08:48.438Z,6.10
2018-06-27T01:09:46.789Z,6.60
2018-06-27T01:10:49.431Z,7.00
2018-06-27T01:11:47.037Z,6.60
2018-06-27T01:12:47.248Z,7.80
2018-06-27T01:13:47.456Z,6.50
2018-06-27T01:14:49.428Z,6.60
2018-06-27T01:15:47.884Z,7.10
2018-06-27T01:16:49.938Z,6.60
2018-06-27T01:17:48.273Z,6.60
2018-06-27T01:18:52.450Z,7.30
2018-06-27T01:19:48.677Z,6.80
2018-06-27T01:20:51.454Z,6.40
2018-06-27T01:21:49.049Z,7.00
2018-06-27T01:22:51.958Z,6.60
2018-06-27T01:23:50.983Z,6.90
2018-06-27T01:24:49.657Z,6.70
2018-06-27T01:25:49.881Z,6.60
2018-06-27T01:26:50.099Z,7.50
2018-06-27T01:27:51.944Z,6.80
2018-06-27T01:28:50.552Z,7.00
2018-06-27T01:29:52.432Z,7.40
2018-06-27T01:30:50.926Z,7.30
2018-06-27T01:31:51.108Z,7.50
2018-06-27T01:32:52.931Z,6.90
2018-06-27T01:33:51.527Z,7.40
2018-06-27T01:34:51.744Z,7.50
2018-06-27T01:35:51.953Z,6.40
2018-06-27T01:36:52.158Z,7.00
2018-06-27T01:37:52.415Z,6.50
2018-06-27T01:38:53.614Z,6.50
2018-06-27T01:39:54.440Z,6.80
2018-06-27T01:40:54.927Z,7.60
2018-06-27T01:41:53.143Z,7.40
2018-06-27T01:42:54.932Z,7.10
2018-06-27T01:43:55.444Z,9.50
2018-06-27T01:44:53.684Z,6.60
2018-06-27T01:45:56.439Z,7.40
2018-06-27T01:46:54.054Z,7.90
2018-06-27T01:47:54.200Z,7.10
2018-06-27T01:48:54.308Z,7.30
2018-06-27T01:49:54.539Z,7.00
2018-06-27T01:50:56.440Z,7.30
2018-06-27T01:51:56.444Z,7.00
2018-06-27T01:52:55.046Z,7.00
2018-06-27T01:53:56.983Z,7.10
2018-06-27T01:54:55.468Z,7.70
2018-06-27T01:55:55.584Z,7.70
2018-06-27T01:56:57.438Z,7.20
2018-06-27T01:57:57.983Z,7.00
2018-06-27T01:58:57.989Z,7.50
2018-06-27T02:00:02.947Z,7.30
2018-06-27T02:00:59.468Z,7.70
2018-06-27T02:01:56.679Z,7.00
2018-06-27T02:02:58.447Z,7.90
2018-06-27T02:03:57.034Z,7.50
2018-06-27T02:04:57.244Z,7.90
2018-06-27T02:05:58.485Z,8.10
2018-06-27T02:07:03.440Z,8.00
2018-06-27T02:07:59.385Z,7.40
2018-06-27T02:08:57.979Z,7.30
2018-06-27T02:09:58.151Z,8.30
2018-06-27T02:10:58.328Z,8.10
2018-06-27T02:12:00.461Z,8.00
2018-06-27T02:13:04.443Z,7.80
2018-06-27T02:13:58.900Z,8.40
2018-06-27T02:15:00.976Z,7.90
2018-06-27T02:15:59.322Z,8.10
2018-06-27T02:17:01.460Z,8.30
2018-06-27T02:18:03.430Z,7.70
2018-06-27T02:19:00.896Z,7.40
2018-06-27T02:20:00.164Z,8.50
2018-06-27T02:21:00.349Z,8.30
2018-06-27T02:22:02.479Z,7.70
2018-06-27T02:23:00.705Z,7.10
2018-06-27T02:24:00.924Z,7.50
2018-06-27T02:25:01.145Z,7.60
2018-06-27T02:26:02.971Z,7.90
2018-06-27T02:27:01.574Z,8.50
2018-06-27T02:28:03.481Z,7.10
2018-06-27T02:29:01.960Z,8.00
2018-06-27T02:30:02.177Z,7.70
2018-06-27T02:31:02.403Z,7.60
2018-06-27T02:32:02.621Z,7.50
2018-06-27T02:33:02.833Z,7.90
2018-06-27T02:34:03.055Z,7.90
2018-06-27T02:35:03.270Z,7.40
2018-06-27T02:36:03.429Z,8.50
2018-06-27T02:37:03.578Z,8.10
2018-06-27T02:38:03.792Z,8.10
2018-06-27T02:39:04.941Z,7.90
2018-06-27T02:40:05.937Z,8.40
2018-06-27T02:41:04.188Z,8.40
2018-06-27T02:42:06.952Z,7.60
2018-06-27T02:43:07.433Z,7.60
2018-06-27T02:44:04.818Z,8.00
2018-06-27T02:45:05.019Z,6.80
2018-06-27T02:46:05.143Z,7.40
2018-06-27T02:47:06.944Z,7.00
2018-06-27T02:48:06.548Z,7.50
2018-06-27T02:49:05.670Z,7.30
2018-06-27T02:50:05.882Z,7.60
2018-06-27T02:51:06.158Z,7.30
2018-06-27T02:52:07.936Z,7.60
2018-06-27T02:53:08.464Z,7.40
2018-06-27T02:54:07.656Z,6.90
2018-06-27T02:55:08.441Z,7.50
2018-06-27T02:56:08.943Z,7.70
2018-06-27T02:57:07.207Z,7.30
2018-06-27T02:58:13.982Z,7.80
2018-06-27T02:59:08.585Z,7.50
2018-06-27T03:00:10.502Z,7.00
2018-06-27T03:01:08.031Z,7.30
2018-06-27T03:02:09.301Z,6.70
2018-06-27T03:03:10.442Z,7.30
2018-06-27T03:04:08.646Z,7.40
2018-06-27T03:05:08.871Z,7.40
2018-06-27T03:06:09.078Z,7.60
2018-06-27T03:07:09.288Z,7.40
2018-06-27T03:08:09.510Z,8.00
2018-06-27T03:09:10.734Z,7.40
2018-06-27T03:10:11.013Z,7.60
2018-06-27T03:11:10.154Z,7.10
2018-06-27T03:12:10.212Z,6.90
2018-06-27T03:13:13.948Z,7.70
2018-06-27T03:14:10.704Z,7.80
2018-06-27T03:15:10.938Z,7.60
2018-06-27T03:16:12.946Z,7.20
2018-06-27T03:17:11.163Z,7.40
2018-06-27T03:18:12.957Z,7.30
2018-06-27T03:19:11.541Z,6.80
2018-06-27T03:20:13.501Z,8.20
2018-06-27T03:21:13.460Z,7.30
2018-06-27T03:22:12.068Z,7.40
2018-06-27T03:23:13.297Z,8.00
2018-06-27T03:24:15.447Z,7.10
2018-06-27T03:25:12.646Z,7.00
2018-06-27T03:26:12.896Z,7.30
2018-06-27T03:27:13.107Z,6.90
2018-06-27T03:28:13.308Z,7.10
2018-06-27T03:29:13.535Z,7.90
2018-06-27T03:30:15.456Z,7.20
2018-06-27T03:31:13.942Z,7.40
2018-06-27T03:32:15.052Z,7.60
2018-06-27T03:33:15.939Z,7.40
2018-06-27T03:34:14.469Z,7.30
2018-06-27T03:35:16.441Z,8.00
2018-06-27T03:36:14.780Z,7.50
2018-06-27T03:37:16.962Z,8.70
2018-06-27T03:38:16.984Z,7.70
2018-06-27T03:39:15.412Z,8.00
2018-06-27T03:40:15.628Z,7.80
2018-06-27T03:41:15.858Z,8.10
2018-06-27T03:42:17.003Z,8.20
2018-06-27T03:43:18.947Z,7.70
2018-06-27T03:44:17.984Z,7.20
2018-06-27T03:45:16.583Z,7.70
2018-06-27T03:46:18.455Z,8.10
2018-06-27T03:47:18.466Z,7.80
2018-06-27T03:48:18.952Z,7.60
2018-06-27T03:49:22.971Z,7.60
2018-06-27T03:50:18.947Z,7.70
2018-06-27T03:51:18.993Z,7.70
2018-06-27T03:52:17.565Z,7.60
2018-06-27T03:53:17.780Z,8.20
2018-06-27T03:54:19.945Z,8.30
2018-06-27T03:55:19.996Z,7.70
2018-06-27T03:56:25.944Z,7.70
2018-06-27T03:57:20.445Z,7.50
2018-06-27T03:58:21.447Z,7.70
2018-06-27T03:59:20.441Z,7.40
2018-06-27T04:00:22.445Z,8.10
2018-06-27T04:01:19.034Z,7.70
2018-06-27T04:02:19.246Z,8.20
2018-06-27T04:03:22.945Z,7.60
2018-06-27T04:04:21.450Z,7.80
2018-06-27T04:05:19.773Z,7.50
2018-06-27T04:06:20.043Z,7.50
2018-06-27T04:07:20.136Z,7.00
2018-06-27T04:08:21.361Z,7.20
2018-06-27T04:09:22.448Z,7.50
2018-06-27T04:10:22.457Z,6.90
2018-06-27T04:11:20.939Z,7.20
2018-06-27T04:12:21.193Z,7.00
2018-06-27T04:13:21.490Z,6.80
2018-06-27T04:14:21.613Z,7.40
2018-06-27T04:15:21.700Z,7.10
2018-06-27T04:16:21.912Z,7.20
2018-06-27T04:17:23.173Z,7.50
2018-06-27T04:18:23.962Z,7.80
2018-06-27T04:19:23.957Z,7.40
2018-06-27T04:20:24.461Z,7.50
2018-06-27T04:21:23.693Z,7.30
2018-06-27T04:22:22.896Z,7.50
2018-06-27T04:23:23.105Z,7.30
2018-06-27T04:24:24.963Z,7.50
2018-06-27T04:25:25.459Z,8.80
2018-06-27T04:26:25.444Z,7.50
2018-06-27T04:27:25.441Z,7.10
2018-06-27T04:28:23.910Z,7.60
2018-06-27T04:29:30.124Z,7.80
2018-06-27T04:30:24.339Z,7.80
2018-06-27T04:31:26.463Z,7.90
2018-06-27T04:32:24.702Z,7.30
2018-06-27T04:33:27.446Z,7.80
2018-06-27T04:34:27.956Z,8.40
2018-06-27T04:35:25.233Z,7.40
2018-06-27T04:36:25.346Z,7.40
2018-06-27T04:37:27.448Z,8.60
2018-06-27T04:38:27.440Z,7.70
2018-06-27T04:39:29.943Z,8.50
2018-06-27T04:40:27.957Z,7.60
2018-06-27T04:41:27.943Z,7.80
2018-06-27T04:42:26.532Z,8.30
2018-06-27T04:43:26.742Z,8.00
2018-06-27T04:44:28.948Z,8.10
2018-06-27T04:45:27.172Z,7.60
2018-06-27T04:46:27.390Z,7.40
2018-06-27T04:47:27.662Z,7.40
2018-06-27T04:48:27.747Z,7.60
2018-06-27T04:49:28.008Z,7.80
2018-06-27T04:50:28.209Z,7.20
2018-06-27T04:51:28.457Z,7.50
2018-06-27T04:52:28.528Z,7.00
2018-06-27T04:53:29.770Z,8.80
2018-06-27T04:54:28.861Z,7.10
2018-06-27T04:55:30.961Z,7.30
2018-06-27T04:56:31.942Z,6.60
2018-06-27T04:57:29.531Z,6.90
2018-06-27T04:58:29.754Z,7.30
2018-06-27T04:59:37.942Z,8.70
2018-06-27T05:00:31.947Z,7.40
2018-06-27T05:01:30.298Z,7.10
2018-06-27T05:02:30.510Z,6.90
2018-06-27T05:03:31.720Z,8.10
2018-06-27T05:04:30.946Z,7.40
2018-06-27T05:05:31.198Z,8.60
2018-06-27T05:06:34.975Z,7.10
2018-06-27T05:07:31.473Z,7.40
2018-06-27T05:08:31.552Z,9.20
2018-06-27T05:09:31.785Z,8.40
2018-06-27T05:10:31.997Z,8.10
2018-06-27T05:11:32.228Z,7.30
2018-06-27T05:12:32.466Z,8.10
2018-06-27T05:13:32.674Z,7.50
2018-06-27T05:14:32.893Z,7.70
2018-06-27T05:15:33.127Z,7.10
2018-06-27T05:16:33.318Z,6.60
2018-06-27T05:17:35.479Z,6.80
2018-06-27T05:18:33.685Z,7.50
2018-06-27T05:19:35.442Z,8.10
2018-06-27T05:20:34.088Z,7.90
2018-06-27T05:21:34.265Z,6.50
2018-06-27T05:22:35.503Z,7.80
2018-06-27T05:23:34.706Z,8.10
2018-06-27T05:24:34.916Z,7.00
2018-06-27T05:25:35.148Z,6.90
2018-06-27T05:26:35.351Z,8.30
2018-06-27T05:27:35.703Z,7.80
2018-06-27T05:28:35.804Z,8.10
2018-06-27T05:29:36.030Z,9.80
2018-06-27T05:30:39.953Z,8.30
2018-06-27T05:31:36.415Z,7.50
2018-06-27T05:32:36.645Z,7.50
2018-06-27T05:33:38.473Z,7.70
2018-06-27T05:34:37.062Z,8.40
2018-06-27T05:35:37.266Z,8.30
2018-06-27T05:36:37.493Z,8.30
2018-06-27T05:37:37.706Z,8.20
2018-06-27T05:38:37.940Z,8.40
2018-06-27T05:39:39.950Z,8.80
2018-06-27T05:40:38.176Z,8.60
2018-06-27T05:41:40.992Z,8.90
2018-06-27T05:42:38.534Z,8.80
2018-06-27T05:43:38.775Z,9.10
2018-06-27T05:44:38.993Z,8.80
2018-06-27T05:45:39.218Z,9.20
2018-06-27T05:46:40.986Z,8.80
2018-06-27T05:47:39.588Z,9.00
2018-06-27T05:48:41.463Z,9.10
2018-06-27T05:49:43.468Z,9.80
2018-06-27T05:50:40.045Z,9.70
2018-06-27T05:51:40.306Z,8.70
2018-06-27T05:52:40.508Z,9.30
2018-06-27T05:53:43.447Z,9.40
2018-06-27T05:54:40.940Z,10.30
2018-06-27T05:55:44.002Z,9.70
2018-06-27T05:56:43.949Z,9.80
2018-06-27T05:57:42.955Z,9.70
2018-06-27T05:58:43.457Z,9.80
2018-06-27T05:59:44.486Z,9.50
2018-06-27T06:00:41.844Z,11.20
2018-06-27T06:01:44.995Z,9.50
2018-06-27T06:02:43.272Z,9.30
2018-06-27T06:03:44.956Z,9.50
2018-06-27T06:04:46.463Z,11.30
2018-06-27T06:05:42.810Z,10.00
2018-06-27T06:06:44.964Z,11.40
2018-06-27T06:07:44.997Z,10.90
2018-06-27T06:08:45.969Z,11.40
2018-06-27T06:09:43.470Z,10.50
2018-06-27T06:10:45.452Z,10.00
2018-06-27T06:11:43.821Z,9.40
2018-06-27T06:12:44.036Z,10.10
2018-06-27T06:13:44.222Z,10.80
2018-06-27T06:14:45.970Z,9.60
2018-06-27T06:15:44.575Z,9.90
2018-06-27T06:16:46.467Z,10.10
2018-06-27T06:17:46.474Z,9.70
2018-06-27T06:18:46.086Z,10.10
2018-06-27T06:19:45.971Z,12.10
2018-06-27T06:20:47.002Z,9.80
2018-06-27T06:21:47.455Z,10.30
2018-06-27T06:22:45.794Z,10.40
2018-06-27T06:23:46.038Z,10.20
2018-06-27T06:24:48.991Z,10.20
2018-06-27T06:25:47.505Z,10.20
2018-06-27T06:26:53.462Z,9.70
2018-06-27T06:27:47.797Z,10.40
2018-06-27T06:28:48.959Z,11.30
2018-06-27T06:29:49.446Z,9.60
2018-06-27T06:30:47.391Z,11.50
2018-06-27T06:31:49.456Z,11.00
2018-06-27T06:32:47.703Z,12.20
2018-06-27T06:33:49.456Z,11.80
2018-06-27T06:34:48.091Z,12.10
2018-06-27T06:35:50.968Z,12.10
2018-06-27T06:36:51.912Z,10.10
2018-06-27T06:37:48.626Z,11.50
2018-06-27T06:38:51.453Z,12.00
2018-06-27T06:39:50.993Z,11.20
2018-06-27T06:41:12.964Z,10.70
2018-06-27T06:41:51.013Z,11.60
2018-06-27T06:42:49.666Z,12.40
2018-06-27T06:43:49.736Z,11.30
2018-06-27T06:44:52.452Z,10.40
2018-06-27T06:46:02.964Z,12.30
2018-06-27T06:46:51.966Z,12.90
2018-06-27T06:47:51.024Z,10.70
2018-06-27T06:48:51.566Z,11.20
2018-06-27T06:49:50.838Z,9.80
2018-06-27T06:50:56.451Z,9.80
2018-06-27T06:51:52.992Z,10.80
2018-06-27T06:52:51.232Z,12.50
2018-06-27T06:53:52.952Z,9.90
2018-06-27T06:54:59.497Z,11.90
2018-06-27T06:55:52.208Z,10.10
2018-06-27T06:56:55.951Z,11.00
2018-06-27T06:57:53.962Z,11.90
2018-06-27T06:58:54.950Z,10.00
2018-06-27T06:59:55.472Z,12.10
2018-06-27T07:00:53.410Z,12.10
2018-06-27T07:01:55.923Z,11.50
2018-06-27T07:02:54.204Z,10.10
2018-06-27T07:03:57.998Z,12.10
2018-06-27T07:04:53.527Z,11.50
2018-06-27T07:05:56.464Z,11.20
2018-06-27T07:06:54.799Z,10.40
2018-06-27T07:07:58.922Z,9.10
2018-06-27T07:09:01.962Z,11.70
2018-06-27T07:09:56.952Z,11.90
2018-06-27T07:10:56.072Z,12.30
2018-06-27T07:12:02.511Z,9.60
2018-06-27T07:12:59.427Z,12.10
2018-06-27T07:13:58.962Z,9.70
2018-06-27T07:15:10.959Z,9.30
2018-06-27T07:15:56.961Z,11.60
2018-06-27T07:16:56.981Z,10.40
2018-06-27T07:17:59.564Z,10.90
2018-06-27T07:18:55.783Z,9.70
2018-06-27T07:19:59.423Z,11.30
2018-06-27T07:21:00.013Z,10.00
2018-06-27T07:21:59.008Z,8.10
2018-06-27T07:23:04.271Z,9.00
2018-06-27T07:23:56.672Z,7.60
2018-06-27T07:25:00.459Z,7.40
2018-06-27T07:26:00.454Z,8.30
2018-06-27T07:27:00.019Z,7.50
2018-06-27T07:27:59.023Z,10.70
2018-06-27T07:29:00.956Z,9.00
2018-06-27T07:29:59.487Z,7.20
2018-06-27T07:30:59.308Z,8.50
2018-06-27T07:31:58.937Z,8.20
2018-06-27T07:32:59.960Z,6.10
2018-06-27T07:33:59.971Z,7.60
2018-06-27T07:34:58.366Z,8.80
2018-06-27T07:36:26.172Z,8.40
2018-06-27T07:37:22.474Z,8.60
2018-06-27T07:37:59.053Z,8.00
2018-06-27T07:39:22.142Z,10.90
2018-06-27T07:40:01.419Z,8.20
2018-06-27T07:41:02.911Z,6.60
2018-06-27T07:42:05.463Z,8.60
2018-06-27T07:43:04.417Z,6.70
2018-06-27T07:44:04.967Z,7.60
2018-06-27T07:45:00.334Z,6.80
2018-06-27T07:46:05.918Z,7.60
2018-06-27T07:47:02.471Z,8.60
2018-06-27T07:48:00.942Z,9.20
2018-06-27T07:49:03.960Z,7.30
2018-06-27T07:50:03.915Z,8.10
2018-06-27T07:51:10.457Z,8.60
2018-06-27T07:52:03.462Z,8.10
2018-06-27T07:53:04.411Z,7.50
2018-06-27T07:54:10.916Z,6.90
2018-06-27T07:55:13.027Z,8.00
2018-06-27T07:56:04.522Z,6.10
2018-06-27T07:57:07.918Z,6.60
2018-06-27T07:58:04.432Z,6.90
2018-06-27T07:59:19.927Z,7.20
2018-06-27T08:00:05.945Z,6.10
2018-06-27T08:01:07.009Z,7.30
2018-06-27T08:02:04.340Z,7.30
2018-06-27T11:26:54.379Z,1.70
2018-06-27T11:27:31.873Z,1.40
2018-06-27T11:28:48.295Z,1.30
2018-06-27T11:29:44.178Z,1.70
2018-06-27T11:30:36.761Z,2.20
2018-06-27T11:33:14.921Z,1.60
2018-06-27T11:34:30.748Z,1.50
2018-06-27T11:35:09.660Z,1.40
2018-06-27T11:36:27.672Z,2.50
2018-06-27T11:37:28.495Z,1.60
2018-06-27T11:38:11.005Z,1.50
2018-06-27T11:39:27.018Z,2.10
2018-06-27T11:47:52.252Z,2.00
2018-06-27T12:31:42.273Z,2.70
2018-06-27T12:40:24.217Z,2.40
2018-06-27T13:30:35.133Z,1.40
2018-06-27T13:31:48.614Z,1.10
2018-06-27T13:37:33.197Z,1.70
2018-06-27T13:43:08.722Z,1.90
2018-06-27T13:43:42.793Z,1.20
2018-06-27T13:44:42.749Z,1.80
2018-06-27T13:45:41.764Z,2.00
2018-06-27T13:46:42.048Z,1.20
2018-06-27T13:48:04.582Z,1.70
2018-06-27T13:50:24.705Z,1.10
2018-06-27T13:56:37.705Z,1.40
2018-06-27T13:56:52.168Z,1.80
2018-06-27T13:57:52.214Z,1.30
2018-06-27T13:58:55.750Z,2.60
2018-06-27T13:59:58.288Z,1.70
2018-06-27T14:00:50.647Z,1.80
2018-06-27T14:02:18.292Z,1.80
2018-06-27T14:03:00.716Z,1.30
2018-06-27T14:05:56.916Z,1.50
2018-06-27T14:06:30.345Z,3.40
2018-06-27T14:12:33.512Z,3.10
2018-06-27T14:13:30.410Z,2.10
2018-06-27T14:27:47.770Z,2.00
2018-06-27T14:28:45.687Z,1.70
2018-06-27T14:29:46.270Z,2.70
2018-06-27T14:30:32.184Z,2.40
2018-06-27T14:31:35.751Z,1.70
2018-06-27T14:32:24.711Z,1.60
2018-06-27T14:33:46.690Z,1.50
2018-06-27T14:34:35.723Z,1.30
2018-06-27T14:40:36.154Z,2.00
2018-06-27T14:42:48.415Z,1.40
2018-06-27T14:47:17.260Z,1.10
2018-06-27T14:47:48.255Z,1.20
2018-06-27T14:48:52.213Z,1.60
2018-06-27T14:56:48.262Z,2.30
2018-06-27T14:57:18.782Z,2.10
2018-06-27T14:58:16.739Z,1.40
2018-06-27T14:59:16.803Z,1.30
2018-06-27T15:09:54.685Z,1.50
2018-06-27T15:12:34.907Z,2.40
2018-06-27T15:50:56.874Z,1.70
2018-06-27T15:56:31.215Z,1.30
2018-06-27T15:57:32.669Z,2.00
2018-06-27T15:58:25.164Z,1.10
2018-06-27T16:04:19.931Z,1.30
2018-06-27T16:05:24.511Z,1.40
2018-06-27T16:07:41.558Z,2.50
2018-06-27T16:08:33.302Z,2.00
2018-06-27T16:09:50.102Z,1.20
2018-06-27T16:10:40.014Z,1.60
2018-06-27T16:17:48.678Z,2.30
2018-06-27T16:23:51.111Z,2.20
2018-06-27T17:01:55.620Z,2.10
2018-06-27T17:03:18.119Z,2.20
2018-06-27T17:04:12.881Z,2.80
2018-06-27T21:08:11.638Z,2.90
2018-06-27T21:39:22.015Z,2.00
2018-06-27T21:50:26.657Z,1.60
2018-06-27T21:54:48.341Z,1.70
2018-06-27T21:55:49.925Z,1.60
2018-06-27T21:56:28.672Z,1.50
2018-06-27T21:57:34.369Z,1.80
2018-06-27T22:04:06.399Z,1.70
2018-06-27T22:16:16.732Z,2.50
2018-06-27T22:23:27.406Z,2.30
2018-06-27T22:27:41.825Z,1.80
2018-06-27T22:28:43.562Z,2.10
2018-06-27T22:29:28.281Z,3.90
2018-06-27T22:30:29.261Z,1.90
2018-06-27T22:35:24.162Z,1.60
2018-06-27T22:53:05.338Z,1.80
2018-06-27T22:54:24.507Z,5.50
2018-06-27T22:55:06.516Z,2.10
2018-06-27T22:56:33.548Z,2.00
2018-06-27T22:57:10.974Z,2.90
2018-06-27T22:58:05.042Z,1.80
2018-06-27T22:59:14.622Z,1.80
2018-06-27T23:00:26.471Z,3.10
2018-06-27T23:01:25.563Z,1.90
2018-06-27T23:04:07.136Z,2.00
2018-06-27T23:05:04.343Z,2.40
2018-06-27T23:06:03.105Z,1.60
2018-06-27T23:06:37.657Z,2.10
2018-06-27T23:07:39.715Z,3.00
2018-06-27T23:08:36.321Z,1.60
2018-06-27T23:09:44.146Z,1.50
2018-06-27T23:10:37.640Z,2.60
2018-06-27T23:11:42.682Z,2.40
2018-06-27T23:12:39.721Z,1.70
2018-06-27T23:13:49.205Z,1.90
2018-06-27T23:16:47.129Z,1.70
2018-06-27T23:19:11.820Z,2.10
2018-06-27T23:21:44.848Z,2.10
2018-06-27T23:22:15.513Z,1.80
2018-06-27T23:23:51.829Z,1.70
2018-06-27T23:25:53.269Z,1.70
2018-06-27T23:26:53.747Z,2.30
2018-06-27T23:27:55.075Z,3.10
2018-06-27T23:29:10.032Z,2.60
2018-06-27T23:35:10.939Z,2.70
2018-06-27T23:35:47.043Z,3.60
2018-06-27T23:37:06.551Z,2.00
2018-06-27T23:37:43.479Z,2.80
2018-06-27T23:38:42.698Z,2.70
2018-06-27T23:44:19.087Z,2.60
2018-06-27T23:45:20.875Z,2.70
2018-06-27T23:46:24.869Z,2.90
2018-06-27T23:47:49.867Z,1.90
2018-06-27T23:48:42.373Z,3.30
2018-06-27T23:51:24.815Z,2.20
2018-06-27T23:53:33.265Z,2.60
2018-06-27T23:54:25.614Z,2.50
2018-06-27T23:55:25.710Z,2.40
2018-06-27T23:56:28.138Z,2.70
2018-06-27T23:57:25.080Z,2.50
